createdAt,value
2019-04-10T00:00:28.646Z,62.88
2019-04-10T00:02:57.802Z,62.89
2019-04-10T00:05:26.096Z,62.86
2019-04-10T00:07:54.149Z,62.83
2019-04-10T00:10:22.308Z,62.82
2019-04-10T00:12:50.624Z,62.85
2019-04-10T00:15:19.095Z,62.86
2019-04-10T00:17:47.232Z,62.84
2019-04-10T00:20:16.215Z,62.82
2019-04-10T00:22:44.518Z,62.83
2019-04-10T00:25:12.922Z,62.81
2019-04-10T00:27:40.983Z,62.86
2019-04-10T00:30:09.328Z,62.87
2019-04-10T00:32:38.277Z,62.87
2019-04-10T00:35:06.516Z,62.88
2019-04-10T00:37:35.298Z,62.88
2019-04-10T00:40:03.507Z,62.88
2019-04-10T00:42:34.807Z,62.90
2019-04-10T00:45:03.950Z,62.96
2019-04-10T00:47:32.113Z,63.00
2019-04-10T00:50:00.104Z,63.02
2019-04-10T00:52:28.233Z,63.04
2019-04-10T00:54:57.480Z,63.03
2019-04-10T00:57:25.744Z,63.02
2019-04-10T00:59:54.689Z,63.04
2019-04-10T01:02:22.881Z,63.11
2019-04-10T01:04:50.970Z,63.11
2019-04-10T01:07:32.416Z,63.16
2019-04-10T01:09:53.358Z,63.16
2019-04-10T01:12:21.725Z,63.14
2019-04-10T01:14:49.814Z,63.13
2019-04-10T01:17:18.001Z,63.10
2019-04-10T01:19:46.229Z,63.11
2019-04-10T01:22:14.930Z,63.12
2019-04-10T01:24:43.898Z,63.13
2019-04-10T01:27:12.445Z,63.19
2019-04-10T01:29:40.502Z,63.21
2019-04-10T01:32:08.600Z,63.23
2019-04-10T01:34:37.849Z,63.23
2019-04-10T01:37:06.061Z,63.24
2019-04-10T01:39:34.738Z,63.21
2019-04-10T01:42:03.921Z,63.23
2019-04-10T01:44:32.997Z,63.21
2019-04-10T01:47:01.166Z,63.22
2019-04-10T01:49:29.477Z,63.19
2019-04-10T01:51:57.625Z,63.18
2019-04-10T01:54:25.679Z,63.18
2019-04-10T01:56:53.791Z,63.15
2019-04-10T01:59:24.078Z,63.17
2019-04-10T02:01:56.879Z,63.13
2019-04-10T02:04:25.232Z,63.08
2019-04-10T02:06:53.788Z,63.06
2019-04-10T02:09:21.910Z,63.05
2019-04-10T02:11:50.307Z,63.01
2019-04-10T02:14:18.425Z,63.02
2019-04-10T02:16:47.285Z,63.02
2019-04-10T02:19:16.346Z,63.02
2019-04-10T02:21:44.555Z,63.01
2019-04-10T02:24:12.597Z,63.01
2019-04-10T02:26:41.399Z,63.03
2019-04-10T02:29:09.582Z,63.07
2019-04-10T02:31:39.066Z,63.12
2019-04-10T02:34:09.383Z,63.16
2019-04-10T02:36:38.533Z,63.16
2019-04-10T02:39:19.441Z,63.13
2019-04-10T02:41:38.564Z,63.11
2019-04-10T02:44:07.925Z,63.12
2019-04-10T02:46:36.949Z,63.13
2019-04-10T02:49:06.242Z,63.16
2019-04-10T02:51:35.135Z,63.17
2019-04-10T02:54:05.052Z,63.14
2019-04-10T02:56:33.443Z,63.14
2019-04-10T02:59:02.811Z,63.16
2019-04-10T03:01:31.624Z,63.20
2019-04-10T03:04:01.387Z,63.24
2019-04-10T03:06:31.003Z,63.27
2019-04-10T03:09:14.490Z,63.25
2019-04-10T03:11:32.944Z,63.20
2019-04-10T03:14:01.651Z,63.19
2019-04-10T03:16:31.348Z,63.20
2019-04-10T03:18:59.469Z,63.22
2019-04-10T03:21:27.542Z,63.28
2019-04-10T03:23:55.983Z,63.30
2019-04-10T03:26:25.672Z,63.33
2019-04-10T03:28:53.764Z,63.36
2019-04-10T03:31:23.043Z,63.36
2019-04-10T03:34:00.974Z,63.42
2019-04-10T03:36:38.015Z,63.46
2019-04-10T03:39:08.984Z,63.46
2019-04-10T03:41:38.004Z,63.50
2019-04-10T03:44:06.146Z,63.57
2019-04-10T03:46:35.137Z,63.65
2019-04-10T03:49:05.283Z,63.72
2019-04-10T03:51:33.756Z,63.79
2019-04-10T03:54:02.655Z,63.81
2019-04-10T03:56:31.810Z,63.83
2019-04-10T03:59:00.119Z,63.80
2019-04-10T04:01:29.096Z,63.77
2019-04-10T04:03:57.322Z,63.72
2019-04-10T04:06:25.848Z,63.72
2019-04-10T04:14:32.578Z,63.83
2019-04-10T04:17:00.276Z,63.85
2019-04-10T04:19:28.294Z,63.90
2019-04-10T04:21:56.726Z,63.90
2019-04-10T04:24:25.533Z,63.91
2019-04-10T04:26:55.025Z,63.92
2019-04-10T04:29:22.876Z,63.94
2019-04-10T04:31:50.708Z,63.95
2019-04-10T04:34:18.657Z,63.96
2019-04-10T04:36:49.435Z,63.97
2019-04-10T04:39:23.235Z,63.98
2019-04-10T04:41:47.808Z,63.99
2019-04-10T04:44:15.352Z,64.03
2019-04-10T04:46:43.133Z,64.05
2019-04-10T04:49:12.124Z,64.08
2019-04-10T04:51:41.689Z,64.15
2019-04-10T04:54:15.076Z,64.17
2019-04-10T04:56:50.757Z,64.20
2019-04-10T04:59:22.243Z,64.21
2019-04-10T05:01:52.865Z,64.20
2019-04-10T05:04:33.750Z,64.17
2019-04-10T05:07:04.688Z,64.16
2019-04-10T05:09:39.124Z,64.11
2019-04-10T05:12:07.769Z,64.16
2019-04-10T05:14:41.882Z,64.17
2019-04-10T05:17:12.154Z,64.22
2019-04-10T05:19:42.986Z,64.23
2019-04-10T05:22:12.713Z,64.23
2019-04-10T05:24:42.482Z,64.21
2019-04-10T05:27:11.905Z,64.24
2019-04-10T05:29:41.145Z,64.26
2019-04-10T05:32:11.447Z,64.25
2019-04-10T05:34:41.236Z,64.24
2019-04-10T05:37:11.463Z,64.23
2019-04-10T05:39:47.782Z,64.23
2019-04-10T05:42:15.015Z,64.21
2019-04-10T05:44:50.112Z,64.13
2019-04-10T05:47:21.446Z,64.11
2019-04-10T05:49:51.821Z,64.07
2019-04-10T05:52:22.565Z,64.06
2019-04-10T05:54:52.090Z,64.08
2019-04-10T05:57:21.543Z,64.06
2019-04-10T05:59:54.326Z,64.03
2019-04-10T06:02:25.180Z,64.01
2019-04-10T06:04:56.014Z,64.03
2019-04-10T06:07:29.381Z,64.08
2019-04-10T06:10:09.042Z,64.09
2019-04-10T06:12:44.758Z,64.09
2019-04-10T06:15:19.484Z,64.08
2019-04-10T06:17:58.750Z,64.04
2019-04-10T06:20:41.682Z,64.01
2019-04-10T06:23:12.565Z,64.01
2019-04-10T06:25:43.315Z,64.00
2019-04-10T06:28:19.143Z,63.97
2019-04-10T06:30:50.312Z,63.97
2019-04-10T06:45:11.358Z,63.94
2019-04-10T06:47:42.238Z,63.96
2019-04-10T06:50:10.995Z,64.03
2019-04-10T06:52:39.461Z,64.03
2019-04-10T06:55:09.242Z,64.04
2019-04-10T06:57:48.119Z,64.07
2019-04-10T07:00:14.489Z,64.05
2019-04-10T07:02:42.484Z,64.06
2019-04-10T07:05:12.134Z,64.04
2019-04-10T07:07:50.936Z,64.06
2019-04-10T07:10:22.396Z,64.06
2019-04-10T07:12:42.116Z,64.06
2019-04-10T07:15:13.065Z,64.07
2019-04-10T07:17:43.187Z,64.08
2019-04-10T07:20:15.503Z,64.09
2019-04-10T07:22:46.746Z,64.08
2019-04-10T07:25:15.764Z,64.08
2019-04-10T07:27:44.488Z,64.08
2019-04-10T07:30:13.989Z,64.07
2019-04-10T07:32:46.439Z,64.04
2019-04-10T07:35:16.609Z,64.07
2019-04-10T07:37:42.988Z,64.08
2019-04-10T07:40:12.305Z,64.07
2019-04-10T07:42:42.814Z,64.05
2019-04-10T07:45:11.614Z,64.04
2019-04-10T07:47:39.915Z,64.05
2019-04-10T07:50:08.812Z,64.02
2019-04-10T07:52:39.581Z,64.02
2019-04-10T07:55:08.629Z,64.00
2019-04-10T07:57:36.826Z,64.02
2019-04-10T08:00:08.886Z,64.02
2019-04-10T08:02:37.107Z,64.02
2019-04-10T08:05:05.565Z,63.99
2019-04-10T08:07:36.313Z,64.00
2019-04-10T08:10:03.981Z,64.00
2019-04-10T08:12:44.917Z,64.01
2019-04-10T08:15:03.022Z,64.02
2019-04-10T08:17:34.950Z,63.99
2019-04-10T08:20:04.414Z,63.97
2019-04-10T08:22:33.257Z,63.97
2019-04-10T08:25:06.512Z,63.95
2019-04-10T08:27:36.123Z,63.96
2019-04-10T08:30:05.791Z,63.95
2019-04-10T08:32:47.505Z,63.98
2019-04-10T08:35:07.010Z,63.97
2019-04-10T08:37:36.955Z,63.97
2019-04-10T08:40:09.622Z,63.99
2019-04-10T08:42:40.186Z,64.00
2019-04-10T08:45:09.351Z,63.93
2019-04-10T08:47:39.674Z,63.94
2019-04-10T08:50:09.769Z,63.95
2019-04-10T08:52:39.068Z,63.94
2019-04-10T08:55:10.120Z,63.93
2019-04-10T10:11:20.371Z,63.78
2019-04-10T10:14:46.569Z,63.79
2019-04-10T10:17:55.086Z,63.79
2019-04-10T10:20:48.180Z,63.70
2019-04-10T10:23:38.667Z,63.64
2019-04-10T11:06:05.143Z,63.53
2019-04-10T11:08:33.264Z,63.60
2019-04-10T11:11:01.384Z,63.68
2019-04-10T11:13:30.749Z,63.65
2019-04-10T11:16:03.681Z,63.58
2019-04-10T11:18:30.735Z,63.52
2019-04-10T11:23:30.487Z,63.43
2019-04-10T11:25:59.740Z,63.44
2019-04-10T11:28:30.210Z,63.38
2019-04-10T11:30:58.845Z,63.31
2019-04-10T11:33:26.899Z,63.30
2019-04-10T11:35:56.280Z,63.21
2019-04-10T11:38:25.789Z,63.11
2019-04-10T11:40:57.351Z,63.04
2019-04-10T11:43:25.974Z,62.95
2019-04-10T11:45:58.125Z,62.91
2019-04-10T11:48:25.646Z,62.88
2019-04-10T11:50:59.142Z,62.81
2019-04-10T11:53:26.590Z,62.84
2019-04-10T11:55:57.013Z,62.86
2019-04-10T11:58:28.195Z,62.88
2019-04-10T12:00:57.657Z,62.86
2019-04-10T12:03:26.999Z,62.85
2019-04-10T12:05:55.567Z,62.93
2019-04-10T12:08:50.097Z,62.89
2019-04-10T12:13:24.787Z,62.85
2019-04-10T12:15:52.875Z,62.79
2019-04-10T12:18:22.565Z,62.72
2019-04-10T12:20:51.521Z,62.72
2019-04-10T12:23:20.960Z,62.72
2019-04-10T12:25:49.424Z,62.70
2019-04-10T12:28:17.977Z,62.69
2019-04-10T12:30:46.218Z,62.76
2019-04-10T12:33:15.311Z,62.78
2019-04-10T12:35:43.367Z,62.72
2019-04-10T12:38:13.208Z,62.66
2019-04-10T12:40:42.636Z,62.60
2019-04-10T12:43:10.960Z,62.56
2019-04-10T12:45:40.310Z,62.50
2019-04-10T12:48:08.541Z,62.42
2019-04-10T12:50:36.966Z,62.29
2019-04-10T12:53:05.380Z,62.27
2019-04-10T12:55:34.628Z,62.27
2019-04-10T12:58:09.511Z,62.27
2019-04-10T13:00:33.914Z,62.27
2019-04-10T13:03:02.988Z,62.23
2019-04-10T13:05:31.413Z,62.27
2019-04-10T13:08:13.850Z,62.22
2019-04-10T13:10:29.682Z,62.10
2019-04-10T13:12:57.929Z,61.99
2019-04-10T13:15:25.994Z,62.01
2019-04-10T13:17:54.045Z,61.95
2019-04-10T13:20:22.143Z,61.93
2019-04-10T13:22:50.692Z,61.92
2019-04-10T13:25:18.950Z,61.92
2019-04-10T13:27:47.289Z,61.92
2019-04-10T13:30:16.598Z,61.82
2019-04-10T13:32:46.089Z,61.72
2019-04-10T13:35:15.805Z,61.66
2019-04-10T13:37:45.420Z,61.62
2019-04-10T13:40:13.608Z,61.55
2019-04-10T13:42:41.616Z,61.51
2019-04-10T13:45:10.840Z,61.48
2019-04-10T13:47:39.123Z,61.41
2019-04-10T13:50:08.626Z,61.41
2019-04-10T13:52:38.746Z,61.42
2019-04-10T13:55:07.400Z,61.37
2019-04-10T13:57:36.976Z,61.32
2019-04-10T14:00:09.299Z,61.28
2019-04-10T14:02:37.575Z,61.28
2019-04-10T14:05:10.078Z,61.36
2019-04-10T14:07:38.485Z,61.40
2019-04-10T14:10:10.381Z,61.46
2019-04-10T14:12:38.958Z,61.51
2019-04-10T14:15:07.953Z,61.51
2019-04-10T14:17:37.509Z,61.55
2019-04-10T14:20:07.061Z,61.61
2019-04-10T14:22:50.063Z,61.63
2019-04-10T14:25:27.395Z,61.71
2019-04-10T14:27:56.402Z,61.70
2019-04-10T14:30:33.483Z,61.75
2019-04-10T14:33:02.988Z,61.79
2019-04-10T14:35:31.513Z,61.82
2019-04-10T14:37:59.569Z,61.83
2019-04-10T14:40:29.106Z,61.81
2019-04-10T14:43:00.055Z,61.77
2019-04-10T14:45:28.377Z,61.71
2019-04-10T14:47:57.185Z,61.72
2019-04-10T14:50:26.387Z,61.75
2019-04-10T14:52:55.777Z,61.80
2019-04-10T14:55:24.152Z,61.80
2019-04-10T14:57:53.102Z,61.75
2019-04-10T15:00:41.061Z,61.72
2019-04-10T15:03:09.506Z,61.73
2019-04-10T15:05:46.549Z,61.67
2019-04-10T15:08:09.246Z,61.70
2019-04-10T15:10:37.361Z,61.72
2019-04-10T15:13:10.007Z,61.71
2019-04-10T15:15:36.506Z,61.72
2019-04-10T15:18:05.061Z,61.73
2019-04-10T15:20:33.482Z,61.70
2019-04-10T15:23:02.798Z,61.71
2019-04-10T15:25:31.194Z,61.75
2019-04-10T15:28:00.147Z,61.80
2019-04-10T15:30:28.679Z,61.84
2019-04-10T15:32:58.175Z,61.88
2019-04-10T15:35:26.576Z,61.95
2019-04-10T15:37:55.682Z,62.01
2019-04-10T15:40:25.686Z,62.07
2019-04-10T15:42:55.016Z,62.13
2019-04-10T15:45:23.891Z,62.19
2019-04-10T15:47:56.621Z,62.20
2019-04-10T15:50:23.949Z,62.24
2019-04-10T15:52:52.344Z,62.27
2019-04-10T15:55:21.719Z,62.32
2019-04-10T15:57:53.755Z,62.33
2019-04-10T16:00:21.203Z,62.30
2019-04-10T16:02:49.355Z,62.32
2019-04-10T16:05:17.521Z,62.35
2019-04-10T16:07:46.946Z,62.36
2019-04-10T16:10:33.375Z,62.34
2019-04-10T16:13:04.042Z,62.30
2019-04-10T16:15:36.954Z,62.29
2019-04-10T16:18:09.380Z,62.30
2019-04-10T16:20:37.547Z,62.35
2019-04-10T16:23:12.459Z,62.38
2019-04-10T16:25:47.197Z,62.40
2019-04-10T16:28:15.382Z,62.37
2019-04-10T16:30:44.027Z,62.31
2019-04-10T16:33:12.044Z,62.24
2019-04-10T16:35:40.474Z,62.24
2019-04-10T16:38:08.652Z,62.25
2019-04-10T16:40:38.146Z,62.17
2019-04-10T16:43:07.842Z,62.19
2019-04-10T16:45:36.689Z,62.22
2019-04-10T16:48:04.736Z,62.19
2019-04-10T16:50:34.087Z,62.15
2019-04-10T16:53:03.327Z,62.12
2019-04-10T16:55:32.557Z,62.06
2019-04-10T16:58:01.309Z,61.98
2019-04-10T17:00:29.429Z,61.96
2019-04-10T17:02:59.147Z,61.96
2019-04-10T17:05:28.199Z,61.93
2019-04-10T17:07:57.320Z,61.89
2019-04-10T17:10:29.245Z,61.90
2019-04-10T17:13:00.708Z,61.89
2019-04-10T17:15:30.124Z,61.91
2019-04-10T17:17:58.962Z,61.87
2019-04-10T17:20:27.246Z,61.87
2019-04-10T17:22:56.565Z,61.88
2019-04-10T17:25:26.027Z,61.85
2019-04-10T17:27:54.483Z,61.83
2019-04-10T17:30:22.769Z,61.83
2019-04-10T17:32:52.153Z,61.80
2019-04-10T17:35:21.335Z,61.84
2019-04-10T17:37:49.918Z,61.92
2019-04-10T17:40:30.139Z,62.00
2019-04-10T17:42:50.450Z,62.01
2019-04-10T17:45:18.748Z,62.00
2019-04-10T17:47:47.218Z,62.03
2019-04-10T17:50:16.439Z,62.08
2019-04-10T17:52:45.139Z,62.09
2019-04-10T17:55:13.544Z,62.17
2019-04-10T17:57:44.629Z,62.29
2019-04-10T18:00:29.592Z,62.40
2019-04-10T18:02:59.169Z,62.47
2019-04-10T18:05:28.792Z,62.51
2019-04-10T18:07:57.038Z,62.52
2019-04-10T18:10:26.655Z,62.58
2019-04-10T18:12:56.993Z,62.62
2019-04-10T18:15:26.078Z,62.62
2019-04-10T18:17:55.467Z,62.61
2019-04-10T18:20:24.232Z,62.58
2019-04-10T18:22:53.332Z,62.54
2019-04-10T18:25:22.184Z,62.58
2019-04-10T18:27:50.552Z,62.65
2019-04-10T18:30:19.548Z,62.66
2019-04-10T18:32:47.892Z,62.65
2019-04-10T18:35:16.534Z,62.61
2019-04-10T18:37:44.702Z,62.61
2019-04-10T18:40:13.066Z,62.60
2019-04-10T18:42:41.219Z,62.60
2019-04-10T18:45:09.605Z,62.63
2019-04-10T18:47:39.290Z,62.62
2019-04-10T18:50:07.964Z,62.66
2019-04-10T18:52:37.382Z,62.68
2019-04-10T18:55:05.947Z,62.70
2019-04-10T18:57:35.674Z,62.69
2019-04-10T19:00:24.092Z,62.70
2019-04-10T19:03:23.660Z,62.72
2019-04-10T19:05:58.327Z,62.72
2019-04-10T19:08:26.505Z,62.74
2019-04-10T19:11:08.415Z,62.76
2019-04-10T19:13:26.629Z,62.80
2019-04-10T19:15:55.386Z,62.81
2019-04-10T19:18:24.148Z,62.82
2019-04-10T19:20:53.178Z,62.85
2019-04-10T19:23:22.740Z,62.86
2019-04-10T19:25:51.404Z,62.90
2019-04-10T19:28:30.067Z,62.94
2019-04-10T19:31:07.950Z,62.96
2019-04-10T19:33:26.371Z,63.02
2019-04-10T19:35:55.180Z,63.14
2019-04-10T19:38:23.379Z,63.27
2019-04-10T19:40:52.027Z,63.36
2019-04-10T19:43:20.677Z,63.47
2019-04-10T19:45:50.263Z,63.61
2019-04-10T19:48:19.237Z,63.66
2019-04-10T19:50:47.783Z,63.68
2019-04-10T19:53:17.169Z,63.66
2019-04-10T19:55:46.238Z,63.64
2019-04-10T19:58:14.865Z,63.63
2019-04-10T20:00:44.410Z,63.64
2019-04-10T20:03:13.237Z,63.61
2019-04-10T20:05:41.557Z,63.56
2019-04-10T20:08:12.605Z,63.57
2019-04-10T20:10:41.498Z,63.57
2019-04-10T20:13:09.672Z,63.58
2019-04-10T20:15:38.493Z,63.60
2019-04-10T20:18:06.792Z,63.65
2019-04-10T20:20:35.586Z,63.67
2019-04-10T20:23:04.633Z,63.65
2019-04-10T20:25:32.851Z,63.55
2019-04-10T20:28:02.539Z,63.50
2019-04-10T20:30:31.323Z,63.48
2019-04-10T20:33:02.740Z,63.48
2019-04-10T20:35:32.048Z,63.44
2019-04-10T20:38:01.024Z,63.44
2019-04-10T20:40:29.699Z,63.42
2019-04-10T20:42:58.960Z,63.51
2019-04-10T20:45:28.201Z,63.58
2019-04-10T20:47:56.331Z,63.58
2019-04-10T20:50:24.380Z,63.55
2019-04-10T20:52:53.628Z,63.52
2019-04-10T20:55:23.855Z,63.47
2019-04-10T20:57:52.167Z,63.46
2019-04-10T21:00:30.147Z,63.42
2019-04-10T21:03:00.678Z,63.40
2019-04-10T21:05:29.122Z,63.39
2019-04-10T21:07:57.188Z,63.42
2019-04-10T21:10:25.542Z,63.43
2019-04-10T21:12:54.611Z,63.42
2019-04-10T21:15:23.686Z,63.47
2019-04-10T21:17:52.789Z,63.54
2019-04-10T21:20:20.949Z,63.54
2019-04-10T21:22:49.351Z,63.56
2019-04-10T21:25:17.502Z,63.56
2019-04-10T21:27:48.540Z,63.58
2019-04-10T21:30:28.383Z,63.67
2019-04-10T21:33:05.989Z,63.68
2019-04-10T21:35:35.072Z,63.68
2019-04-10T21:38:03.266Z,63.71
2019-04-10T21:40:31.312Z,63.81
2019-04-10T21:43:01.570Z,63.79
2019-04-10T21:45:32.744Z,63.77
2019-04-10T21:48:02.118Z,63.72
2019-04-10T21:50:30.486Z,63.72
2019-04-10T21:52:59.941Z,63.72
2019-04-10T21:55:29.058Z,63.73
2019-04-10T21:57:57.648Z,63.75
2019-04-10T22:00:44.945Z,63.78
2019-04-10T22:03:13.631Z,63.81
2019-04-10T22:05:44.465Z,63.78
2019-04-10T22:08:21.386Z,63.80
2019-04-10T22:10:50.341Z,63.80
2019-04-10T22:13:19.708Z,63.77
2019-04-10T22:15:49.009Z,63.76
2019-04-10T22:18:17.231Z,63.76
2019-04-10T22:20:45.821Z,63.79
2019-04-10T22:23:14.110Z,63.83
2019-04-10T22:25:42.132Z,63.86
2019-04-10T22:28:10.188Z,63.90
2019-04-10T22:30:38.256Z,63.92
2019-04-10T22:33:07.673Z,63.93
2019-04-10T22:35:36.142Z,63.93
2019-04-10T22:38:04.579Z,63.93
2019-04-10T22:40:33.373Z,63.91
2019-04-10T22:43:03.284Z,63.91
2019-04-10T22:45:32.657Z,63.93
2019-04-10T22:48:01.201Z,63.88
2019-04-10T22:50:29.199Z,63.89
2019-04-10T22:52:57.732Z,63.91
2019-04-10T22:55:28.243Z,63.91
2019-04-10T22:57:56.904Z,63.90
2019-04-10T23:00:32.652Z,63.89
2019-04-10T23:03:03.105Z,63.87
2019-04-10T23:05:32.581Z,63.88
2019-04-10T23:08:01.153Z,63.90
2019-04-10T23:10:29.330Z,63.91
2019-04-10T23:13:01.660Z,63.93
2019-04-10T23:15:28.428Z,63.89
2019-04-10T23:17:57.246Z,63.88
2019-04-10T23:20:25.880Z,63.86
2019-04-10T23:22:54.827Z,63.84
2019-04-10T23:25:22.972Z,63.82
2019-04-10T23:27:53.447Z,63.81
2019-04-10T23:30:21.520Z,63.78
2019-04-10T23:32:49.649Z,63.76
2019-04-10T23:35:19.025Z,63.78
2019-04-10T23:37:47.087Z,63.78
2019-04-10T23:40:15.147Z,63.80
2019-04-10T23:42:44.162Z,63.78
2019-04-10T23:45:13.461Z,63.73
2019-04-10T23:47:44.354Z,63.66
2019-04-10T23:50:15.175Z,63.61
2019-04-10T23:52:44.854Z,63.59
2019-04-10T23:55:13.593Z,63.57
2019-04-10T23:57:41.949Z,63.58
